createdAt,value
2023-05-10T00:02:14.957Z,100589.81
2023-05-10T00:04:42.086Z,100588.19
2023-05-10T00:07:09.200Z,100583.69
2023-05-10T00:09:39.721Z,100590.19
2023-05-10T00:12:07.068Z,100591.00
2023-05-10T00:14:34.198Z,100590.19
2023-05-10T00:17:01.354Z,100592.22
2023-05-10T00:19:28.647Z,100592.38
2023-05-10T00:21:55.725Z,100595.03
2023-05-10T00:24:22.766Z,100597.50
2023-05-10T00:26:49.833Z,100592.00
2023-05-10T00:29:16.863Z,100603.25
2023-05-10T00:31:43.968Z,100600.41
2023-05-10T00:34:11.069Z,100603.06
2023-05-10T00:36:38.131Z,100604.06
2023-05-10T00:39:05.209Z,100602.25
2023-05-10T00:41:37.467Z,100609.16
2023-05-10T00:44:05.514Z,100603.25
2023-05-10T00:46:35.594Z,100598.50
2023-05-10T00:49:02.971Z,100600.16
2023-05-10T00:51:32.631Z,100601.50
2023-05-10T00:53:59.970Z,100596.84
2023-05-10T00:56:27.711Z,100600.31
2023-05-10T00:58:54.842Z,100603.81
2023-05-10T01:01:21.916Z,100606.25
2023-05-10T01:03:49.666Z,100606.81
2023-05-10T01:06:16.711Z,100611.28
2023-05-10T01:08:44.217Z,100610.28
2023-05-10T01:11:11.883Z,100610.28
2023-05-10T01:13:43.606Z,100613.91
2023-05-10T01:16:10.638Z,100615.56
2023-05-10T01:18:41.897Z,100620.69
2023-05-10T01:21:23.986Z,100614.41
2023-05-10T01:24:11.124Z,100618.22
2023-05-10T01:26:50.935Z,100621.44
2023-05-10T01:29:27.541Z,100619.97
2023-05-10T01:32:14.125Z,100619.34
2023-05-10T01:34:54.612Z,100615.84
2023-05-10T01:37:32.523Z,100617.34
2023-05-10T01:40:03.911Z,100618.94
2023-05-10T01:42:41.783Z,100621.97
2023-05-10T01:45:16.193Z,100625.28
2023-05-10T01:47:46.200Z,100629.09
2023-05-10T01:50:30.119Z,100626.63
2023-05-10T01:53:00.678Z,100629.66
2023-05-10T01:55:32.306Z,100631.47
2023-05-10T01:58:13.335Z,100631.31
2023-05-10T02:00:43.964Z,100628.81
2023-05-10T02:03:12.865Z,100628.00
2023-05-10T02:05:42.634Z,100634.50
2023-05-10T02:08:10.622Z,100636.94
2023-05-10T02:10:38.517Z,100643.44
2023-05-10T02:13:08.523Z,100639.97
2023-05-10T02:15:36.420Z,100648.91
2023-05-10T02:18:05.263Z,100639.31
2023-05-10T02:20:33.706Z,100638.31
2023-05-10T02:23:02.186Z,100642.78
2023-05-10T02:25:35.974Z,100650.13
2023-05-10T02:28:06.366Z,100643.00
2023-05-10T02:30:36.130Z,100649.75
2023-05-10T02:33:05.684Z,100659.34
2023-05-10T02:35:34.863Z,100656.69
2023-05-10T02:38:03.114Z,100658.06
2023-05-10T02:40:31.051Z,100665.00
2023-05-10T02:43:00.014Z,100665.00
2023-05-10T02:45:34.520Z,100668.44
2023-05-10T02:48:01.895Z,100670.09
2023-05-10T02:50:31.359Z,100672.56
2023-05-10T02:53:04.379Z,100682.16
2023-05-10T02:55:36.894Z,100678.88
2023-05-10T02:58:05.168Z,100688.63
2023-05-10T03:00:32.391Z,100682.50
2023-05-10T03:02:59.776Z,100685.16
2023-05-10T03:05:27.102Z,100680.88
2023-05-10T03:07:55.619Z,100682.72
2023-05-10T03:10:29.179Z,100685.53
2023-05-10T03:13:15.213Z,100694.63
2023-05-10T03:15:59.746Z,100686.91
2023-05-10T03:18:34.524Z,100684.44
2023-05-10T03:21:07.531Z,100677.47
2023-05-10T03:23:41.186Z,100682.16
2023-05-10T03:26:09.405Z,100684.59
2023-05-10T03:28:36.943Z,100683.13
2023-05-10T03:31:06.525Z,100684.94
2023-05-10T03:33:38.596Z,100685.63
2023-05-10T03:36:06.077Z,100680.47
2023-05-10T03:38:33.161Z,100686.09
2023-05-10T03:41:00.061Z,100683.47
2023-05-10T03:43:27.253Z,100685.50
2023-05-10T03:45:54.292Z,100690.94
2023-05-10T03:48:21.285Z,100682.19
2023-05-10T03:50:48.379Z,100692.31
2023-05-10T03:53:15.561Z,100693.31
2023-05-10T03:55:42.665Z,100699.44
2023-05-10T03:58:13.096Z,100699.44
2023-05-10T04:00:44.982Z,100695.13
2023-05-10T04:03:12.956Z,100697.94
2023-05-10T04:05:41.484Z,100699.81
2023-05-10T04:08:11.146Z,100701.63
2023-05-10T04:10:38.141Z,100696.34
2023-05-10T04:13:05.342Z,100704.28
2023-05-10T04:15:32.321Z,100710.41
2023-05-10T04:17:59.417Z,100710.91
2023-05-10T04:20:26.764Z,100703.34
2023-05-10T04:22:54.054Z,100717.09
2023-05-10T04:25:21.086Z,100714.47
2023-05-10T04:27:48.201Z,100716.44
2023-05-10T04:30:16.092Z,100709.69
2023-05-10T04:32:46.444Z,100714.16
2023-05-10T04:35:13.618Z,100718.47
2023-05-10T04:37:40.665Z,100716.00
2023-05-10T04:40:08.829Z,100727.94
2023-05-10T04:42:36.058Z,100725.28
2023-05-10T04:45:03.082Z,100734.22
2023-05-10T04:47:32.353Z,100730.91
2023-05-10T04:49:59.828Z,100734.38
2023-05-10T04:52:27.574Z,100736.19
2023-05-10T04:54:54.877Z,100739.88
2023-05-10T04:57:21.932Z,100746.97
2023-05-10T04:59:50.391Z,100745.50
2023-05-10T05:02:17.795Z,100746.69
2023-05-10T05:04:44.818Z,100752.16
2023-05-10T05:07:12.065Z,100760.44
2023-05-10T05:09:40.082Z,100751.03
2023-05-10T05:12:07.221Z,100755.50
2023-05-10T05:14:34.269Z,100761.44
2023-05-10T05:17:01.417Z,100766.72
2023-05-10T05:19:29.826Z,100770.19
2023-05-10T05:21:56.991Z,100778.13
2023-05-10T05:24:24.431Z,100777.94
2023-05-10T05:26:51.410Z,100785.06
2023-05-10T05:29:18.618Z,100787.88
2023-05-10T05:31:45.826Z,100789.53
2023-05-10T05:34:13.272Z,100800.59
2023-05-10T05:36:40.353Z,100791.66
2023-05-10T05:39:07.336Z,100789.19
2023-05-10T05:41:39.892Z,100790.66
2023-05-10T05:44:07.056Z,100797.41
2023-05-10T05:46:34.116Z,100796.59
2023-05-10T05:49:01.083Z,100795.13
2023-05-10T05:51:28.213Z,100799.22
2023-05-10T05:53:55.401Z,100801.06
2023-05-10T05:56:25.782Z,100805.50
2023-05-10T05:58:52.924Z,100804.06
2023-05-10T06:01:20.370Z,100808.22
2023-05-10T06:03:47.504Z,100809.75
2023-05-10T06:06:14.811Z,100819.66
2023-05-10T06:08:41.973Z,100817.00
2023-05-10T06:11:09.042Z,100814.88
2023-05-10T06:13:39.921Z,100804.75
2023-05-10T06:16:07.620Z,100812.97
2023-05-10T06:18:35.829Z,100813.44
2023-05-10T06:21:03.264Z,100816.59
2023-05-10T06:23:31.903Z,100818.50
2023-05-10T06:25:58.947Z,100816.66
2023-05-10T06:28:26.121Z,100823.81
2023-05-10T06:30:53.168Z,100824.94
2023-05-10T06:33:20.381Z,100824.47
2023-05-10T06:35:47.533Z,100831.31
2023-05-10T06:38:14.642Z,100833.59
2023-05-10T06:40:43.708Z,100844.50
2023-05-10T06:43:11.391Z,100837.66
2023-05-10T06:45:39.640Z,100826.72
2023-05-10T06:48:06.816Z,100828.91
2023-05-10T06:50:36.965Z,100825.75
2023-05-10T06:53:04.380Z,100828.25
2023-05-10T06:55:32.860Z,100839.78
2023-05-10T06:57:59.999Z,100829.81
2023-05-10T07:00:27.412Z,100831.19
2023-05-10T07:02:54.639Z,100836.31
2023-05-10T07:05:22.303Z,100835.75
2023-05-10T07:07:49.631Z,100830.72
2023-05-10T07:10:16.747Z,100834.00
2023-05-10T07:12:43.819Z,100831.34
2023-05-10T07:15:11.031Z,100833.72
2023-05-10T07:17:41.757Z,100837.13
2023-05-10T07:20:10.844Z,100832.84
2023-05-10T07:22:38.022Z,100835.19
2023-05-10T07:25:05.515Z,100840.59
2023-05-10T07:27:32.473Z,100844.50
2023-05-10T07:30:00.089Z,100844.59
2023-05-10T07:32:27.909Z,100851.44
2023-05-10T07:34:55.102Z,100856.44
2023-05-10T07:37:22.180Z,100856.72
2023-05-10T07:39:49.429Z,100866.88
2023-05-10T07:42:16.547Z,100859.47
2023-05-10T07:44:43.760Z,100869.88
2023-05-10T07:47:11.227Z,100869.47
2023-05-10T07:49:40.369Z,100869.44
2023-05-10T07:52:07.407Z,100861.66
2023-05-10T07:54:35.308Z,100865.34
2023-05-10T07:57:02.607Z,100862.72
2023-05-10T07:59:32.367Z,100864.25
2023-05-10T08:01:59.438Z,100866.38
2023-05-10T08:04:26.597Z,100867.66
2023-05-10T08:06:53.746Z,100861.94
2023-05-10T08:09:25.493Z,100864.66
2023-05-10T08:11:52.819Z,100878.38
2023-05-10T08:14:20.062Z,100880.03
2023-05-10T08:16:47.227Z,100877.56
2023-05-10T08:19:20.389Z,100872.84
2023-05-10T08:21:47.488Z,100874.34
2023-05-10T08:24:14.859Z,100881.41
2023-05-10T08:26:41.997Z,100880.38
2023-05-10T08:29:09.326Z,100875.66
2023-05-10T08:31:36.744Z,100875.19
2023-05-10T08:34:03.812Z,100876.22
2023-05-10T08:36:31.331Z,100885.44
2023-05-10T08:38:58.348Z,100879.06
2023-05-10T08:41:30.159Z,100883.53
2023-05-10T08:43:57.343Z,100878.50
2023-05-10T08:46:24.917Z,100882.53
2023-05-10T08:48:53.447Z,100891.50
2023-05-10T08:51:25.108Z,100883.44
2023-05-10T08:53:52.720Z,100883.06
2023-05-10T08:56:21.029Z,100886.19
2023-05-10T08:58:50.300Z,100880.47
2023-05-10T09:01:18.376Z,100887.06
2023-05-10T09:03:48.851Z,100882.94
2023-05-10T09:06:17.029Z,100883.03
2023-05-10T09:08:45.840Z,100883.03
2023-05-10T09:11:14.021Z,100892.09
2023-05-10T09:13:41.322Z,100894.06
2023-05-10T09:16:20.585Z,100891.59
2023-05-10T09:18:50.939Z,100892.13
2023-05-10T09:21:18.132Z,100898.06
2023-05-10T09:23:48.729Z,100895.09
2023-05-10T09:26:16.224Z,100887.72
2023-05-10T09:28:54.788Z,100888.78
2023-05-10T09:31:22.190Z,100889.41
2023-05-10T09:33:51.103Z,100889.81
2023-05-10T09:36:18.484Z,100884.91
2023-05-10T09:38:49.495Z,100887.38
2023-05-10T09:41:22.865Z,100890.44
2023-05-10T09:43:51.244Z,100887.34
2023-05-10T09:46:18.527Z,100890.22
2023-05-10T09:48:48.986Z,100888.56
2023-05-10T09:51:24.618Z,100889.63
2023-05-10T09:54:11.746Z,100890.84
2023-05-10T09:56:41.765Z,100887.97
2023-05-10T09:59:12.352Z,100884.69
2023-05-10T10:01:40.676Z,100894.94
2023-05-10T10:04:10.017Z,100893.09
2023-05-10T10:06:39.070Z,100894.50
2023-05-10T10:09:10.642Z,100891.44
2023-05-10T10:11:39.623Z,100892.88
2023-05-10T10:14:07.273Z,100895.97
2023-05-10T10:16:34.805Z,100891.22
2023-05-10T10:19:02.280Z,100895.72
2023-05-10T10:21:33.031Z,100898.19
2023-05-10T10:24:00.189Z,100896.16
2023-05-10T10:26:27.731Z,100893.06
2023-05-10T10:29:07.104Z,100893.69
2023-05-10T10:31:47.585Z,100896.94
2023-05-10T10:34:30.940Z,100891.81
2023-05-10T10:36:59.738Z,100881.75
2023-05-10T10:39:28.340Z,100886.28
2023-05-10T10:41:57.505Z,100885.44
2023-05-10T10:44:25.823Z,100887.31
2023-05-10T10:47:07.379Z,100882.56
2023-05-10T10:49:43.107Z,100883.19
2023-05-10T10:52:30.604Z,100879.88
2023-05-10T10:54:59.402Z,100884.22
2023-05-10T10:57:28.044Z,100881.31
2023-05-10T11:00:24.066Z,100876.38
2023-05-10T11:02:51.585Z,100877.22
2023-05-10T11:05:39.709Z,100878.66
2023-05-10T11:08:11.664Z,100878.28
2023-05-10T11:10:39.418Z,100864.28
2023-05-10T11:13:09.843Z,100867.56
2023-05-10T11:15:39.546Z,100850.34
2023-05-10T11:18:25.986Z,100867.38
2023-05-10T11:20:56.880Z,100867.97
2023-05-10T11:23:24.106Z,100863.81
2023-05-10T11:25:51.559Z,100872.19
2023-05-10T11:28:20.970Z,100866.44
2023-05-10T11:30:48.534Z,100862.75
2023-05-10T11:33:18.997Z,100860.69
2023-05-10T11:35:46.522Z,100865.00
2023-05-10T11:38:15.144Z,100862.56
2023-05-10T11:40:42.684Z,100870.78
2023-05-10T11:43:11.623Z,100854.31
2023-05-10T11:45:42.592Z,100853.47
2023-05-10T11:48:09.906Z,100855.34
2023-05-10T11:50:37.152Z,100858.00
2023-05-10T11:53:04.218Z,100859.00
2023-05-10T11:55:35.225Z,100860.63
2023-05-10T11:58:04.641Z,100864.88
2023-05-10T12:00:33.126Z,100864.84
2023-05-10T12:03:02.212Z,100866.88
2023-05-10T12:05:37.798Z,100872.13
2023-05-10T12:08:13.785Z,100875.00
2023-05-10T12:10:41.230Z,100871.94
2023-05-10T12:13:15.409Z,100863.53
2023-05-10T12:15:43.519Z,100861.91
2023-05-10T12:18:11.976Z,100873.47
2023-05-10T12:20:40.071Z,100874.75
2023-05-10T12:23:09.599Z,100877.44
2023-05-10T12:25:40.719Z,100876.47
2023-05-10T12:28:10.509Z,100871.34
2023-05-10T12:30:38.559Z,100886.59
2023-05-10T12:33:11.476Z,100874.09
2023-05-10T12:35:49.484Z,100872.28
2023-05-10T12:38:36.250Z,100872.28
2023-05-10T12:41:05.476Z,100871.44
2023-05-10T12:43:33.733Z,100880.28
2023-05-10T12:46:06.749Z,100877.22
2023-05-10T12:48:35.307Z,100869.16
2023-05-10T12:51:03.469Z,100882.03
2023-05-10T12:53:35.721Z,100873.53
2023-05-10T12:56:02.920Z,100869.75
2023-05-10T12:58:35.497Z,100880.16
2023-05-10T13:01:03.503Z,100876.63
2023-05-10T13:03:32.645Z,100868.78
2023-05-10T13:05:59.758Z,100880.13
2023-05-10T13:08:26.872Z,100874.19
2023-05-10T13:10:54.483Z,100870.94
2023-05-10T13:13:21.543Z,100868.53
2023-05-10T13:15:48.611Z,100871.03
2023-05-10T13:18:15.703Z,100870.88
2023-05-10T13:20:44.445Z,100871.34
2023-05-10T13:23:11.973Z,100870.72
2023-05-10T13:25:40.394Z,100863.13
2023-05-10T13:28:07.746Z,100867.41
2023-05-10T13:30:34.857Z,100867.19
2023-05-10T13:33:02.114Z,100870.25
2023-05-10T13:35:29.262Z,100860.56
2023-05-10T13:37:58.939Z,100856.84
2023-05-10T13:40:25.935Z,100860.09
2023-05-10T13:42:54.313Z,100867.28
2023-05-10T13:45:21.495Z,100873.53
2023-05-10T13:47:48.689Z,100874.78
2023-05-10T13:50:15.912Z,100888.38
2023-05-10T13:52:42.917Z,100893.16
2023-05-10T13:55:10.311Z,100887.03
2023-05-10T13:57:40.420Z,100885.22
2023-05-10T14:00:09.158Z,100884.66
2023-05-10T14:02:36.393Z,100887.28
2023-05-10T14:05:04.712Z,100880.13
2023-05-10T14:07:32.841Z,100882.59
2023-05-10T14:09:59.878Z,100888.94
2023-05-10T14:12:27.116Z,100885.63
2023-05-10T14:14:54.321Z,100877.03
2023-05-10T14:17:21.510Z,100877.81
2023-05-10T14:19:48.655Z,100869.56
2023-05-10T14:22:15.727Z,100879.19
2023-05-10T14:24:42.729Z,100876.06
2023-05-10T14:27:09.986Z,100868.84
2023-05-10T14:29:39.443Z,100859.56
2023-05-10T14:32:06.779Z,100854.47
2023-05-10T14:34:34.241Z,100855.09
2023-05-10T14:37:01.323Z,100849.94
2023-05-10T14:39:31.939Z,100848.25
2023-05-10T14:41:59.894Z,100846.19
2023-05-10T14:44:27.693Z,100844.34
2023-05-10T14:46:54.731Z,100845.75
2023-05-10T14:49:24.131Z,100843.94
2023-05-10T14:51:51.431Z,100844.19
2023-05-10T14:54:18.516Z,100835.59
2023-05-10T14:56:46.613Z,100831.38
2023-05-10T14:59:16.741Z,100834.88
2023-05-10T15:01:45.271Z,100840.06
2023-05-10T15:04:14.582Z,100832.88
2023-05-10T15:06:42.403Z,100834.09
2023-05-10T15:09:10.256Z,100829.41
2023-05-10T15:11:43.034Z,100831.25
2023-05-10T15:14:10.020Z,100825.06
2023-05-10T15:16:37.242Z,100822.34
2023-05-10T15:19:04.369Z,100822.72
2023-05-10T15:21:40.030Z,100826.97
2023-05-10T15:24:07.555Z,100811.59
2023-05-10T15:26:34.948Z,100821.44
2023-05-10T15:29:02.134Z,100817.94
2023-05-10T15:31:29.582Z,100818.75
2023-05-10T15:34:01.336Z,100815.25
2023-05-10T15:36:29.295Z,100817.09
2023-05-10T15:38:57.320Z,100806.03
2023-05-10T15:41:25.237Z,100812.41
2023-05-10T15:43:53.091Z,100812.63
2023-05-10T15:46:21.105Z,100812.03
2023-05-10T15:48:49.334Z,100823.72
2023-05-10T15:51:17.096Z,100824.09
2023-05-10T15:54:05.254Z,100827.97
2023-05-10T15:56:35.147Z,100833.13
2023-05-10T15:59:03.225Z,100835.88
2023-05-10T16:01:32.882Z,100837.34
2023-05-10T16:04:02.462Z,100835.13
2023-05-10T16:06:30.125Z,100840.28
2023-05-10T16:08:58.070Z,100839.03
2023-05-10T16:11:25.703Z,100843.56
2023-05-10T16:13:53.227Z,100831.25
2023-05-10T16:16:20.964Z,100844.78
2023-05-10T16:18:48.954Z,100840.47
2023-05-10T16:21:17.252Z,100834.13
2023-05-10T16:23:46.997Z,100838.63
2023-05-10T16:26:15.631Z,100840.28
2023-05-10T16:28:43.348Z,100844.72
2023-05-10T16:31:12.209Z,100850.25
2023-05-10T16:33:40.213Z,100848.41
2023-05-10T16:36:07.964Z,100856.63
2023-05-10T16:38:35.832Z,100874.50
2023-05-10T16:41:04.469Z,100879.66
2023-05-10T16:43:33.570Z,100874.56
2023-05-10T16:46:01.638Z,100874.34
2023-05-10T16:48:29.995Z,100877.47
2023-05-10T16:50:58.551Z,100875.44
2023-05-10T16:53:27.063Z,100872.78
2023-05-10T16:55:55.072Z,100877.50
2023-05-10T16:58:23.175Z,100878.09
2023-05-10T17:00:51.621Z,100886.44
2023-05-10T17:03:19.753Z,100890.91
2023-05-10T17:05:47.965Z,100891.09
2023-05-10T17:08:15.558Z,100891.72
2023-05-10T17:10:44.189Z,100888.63
2023-05-10T17:13:11.815Z,100888.19
2023-05-10T17:15:40.194Z,100895.56
2023-05-10T17:18:08.200Z,100899.22
2023-05-10T17:20:35.972Z,100907.63
2023-05-10T17:23:03.875Z,100899.19
2023-05-10T17:25:31.590Z,100912.47
2023-05-10T17:27:59.137Z,100904.25
2023-05-10T17:30:28.071Z,100902.78
2023-05-10T17:32:55.785Z,100897.75
2023-05-10T17:35:23.638Z,100903.25
2023-05-10T17:37:51.309Z,100896.06
2023-05-10T17:40:19.172Z,100895.22
2023-05-10T17:42:46.772Z,100901.13
2023-05-10T17:45:14.936Z,100904.53
2023-05-10T17:47:42.815Z,100899.59
2023-05-10T17:50:11.232Z,100898.59
2023-05-10T17:52:38.628Z,100909.47
2023-05-10T17:55:06.754Z,100901.91
2023-05-10T17:57:34.480Z,100903.19
2023-05-10T18:00:04.326Z,100905.44
2023-05-10T18:02:34.303Z,100909.34
2023-05-10T18:05:02.109Z,100909.34
2023-05-10T18:07:30.990Z,100900.19
2023-05-10T18:09:58.862Z,100902.63
2023-05-10T18:12:26.647Z,100907.16
2023-05-10T18:14:54.285Z,100904.28
2023-05-10T18:17:21.703Z,100904.50
2023-05-10T18:19:49.017Z,100901.38
2023-05-10T18:22:16.463Z,100902.19
2023-05-10T18:24:44.140Z,100905.03
2023-05-10T18:27:11.792Z,100901.59
2023-05-10T18:29:39.798Z,100902.16
2023-05-10T18:32:07.288Z,100898.25
2023-05-10T18:34:34.779Z,100910.88
2023-05-10T18:37:08.099Z,100908.16
2023-05-10T18:39:36.663Z,100903.25
2023-05-10T18:42:05.460Z,100900.94
2023-05-10T18:44:32.899Z,100899.50
2023-05-10T18:47:00.078Z,100903.75
2023-05-10T18:49:28.404Z,100906.25
2023-05-10T18:51:55.661Z,100907.25
2023-05-10T18:54:23.127Z,100908.84
2023-05-10T18:56:50.599Z,100913.50
2023-05-10T18:59:18.024Z,100908.19
2023-05-10T19:01:45.524Z,100912.31
2023-05-10T19:04:12.913Z,100916.63
2023-05-10T19:06:42.030Z,100920.72
2023-05-10T19:09:10.065Z,100928.50
2023-05-10T19:11:37.395Z,100922.19
2023-05-10T19:14:06.253Z,100921.78
2023-05-10T19:16:36.148Z,100918.75
2023-05-10T19:19:08.166Z,100921.44
2023-05-10T19:21:36.225Z,100921.22
2023-05-10T19:24:04.102Z,100916.72
2023-05-10T19:26:31.797Z,100924.50
2023-05-10T19:28:59.193Z,100921.03
2023-05-10T19:31:26.438Z,100924.50
2023-05-10T19:33:54.398Z,100928.38
2023-05-10T19:36:21.841Z,100938.19
2023-05-10T19:38:49.462Z,100934.72
2023-05-10T19:41:16.732Z,100928.38
2023-05-10T19:43:43.942Z,100933.69
2023-05-10T19:46:11.144Z,100935.50
2023-05-10T19:48:39.143Z,100937.38
2023-05-10T19:51:10.002Z,100939.00
2023-05-10T19:53:37.576Z,100945.34
2023-05-10T19:56:06.648Z,100944.72
2023-05-10T19:58:34.135Z,100947.94
2023-05-10T20:01:01.792Z,100955.09
2023-05-10T20:03:29.439Z,100952.00
2023-05-10T20:05:56.631Z,100957.50
2023-05-10T20:08:23.813Z,100962.41
2023-05-10T20:10:51.010Z,100966.88
2023-05-10T20:13:18.211Z,100967.91
2023-05-10T20:15:46.481Z,100971.13
2023-05-10T20:18:13.905Z,100967.81
2023-05-10T20:20:41.953Z,100977.00
2023-05-10T20:23:09.184Z,100973.28
2023-05-10T20:25:36.902Z,100981.81
2023-05-10T20:28:04.257Z,100986.06
2023-05-10T20:30:31.487Z,100977.81
2023-05-10T20:32:59.026Z,100973.53
2023-05-10T20:35:26.992Z,100979.69
2023-05-10T20:37:54.650Z,100973.66
2023-05-10T20:40:21.933Z,100986.31
2023-05-10T20:42:49.969Z,100987.31
2023-05-10T20:45:17.193Z,100988.31
2023-05-10T20:47:44.472Z,100979.91
2023-05-10T20:50:12.140Z,100986.78
2023-05-10T20:52:39.270Z,100983.47
2023-05-10T20:55:07.550Z,100985.94
2023-05-10T20:57:34.724Z,100992.91
2023-05-10T21:00:01.933Z,100992.09
2023-05-10T21:02:29.295Z,100990.44
2023-05-10T21:04:58.236Z,100982.47
2023-05-10T21:07:25.853Z,100995.75
2023-05-10T21:09:53.111Z,100993.09
2023-05-10T21:12:20.183Z,101000.59
2023-05-10T21:14:48.182Z,100987.34
2023-05-10T21:17:15.887Z,100996.13
2023-05-10T21:19:43.852Z,100996.28
2023-05-10T21:22:11.589Z,100990.34
2023-05-10T21:24:38.909Z,100999.50
2023-05-10T21:27:07.786Z,100991.28
2023-05-10T21:29:35.492Z,101002.06
2023-05-10T21:32:02.818Z,100987.13
2023-05-10T21:34:30.297Z,100995.94
2023-05-10T21:36:57.516Z,100996.13
2023-05-10T21:39:24.654Z,101005.25
2023-05-10T21:41:51.835Z,100993.19
2023-05-10T21:44:19.147Z,101002.34
2023-05-10T21:46:46.429Z,100993.09
2023-05-10T21:49:13.718Z,100996.94
2023-05-10T21:51:41.112Z,100990.16
2023-05-10T21:54:08.178Z,100989.50
2023-05-10T21:56:35.485Z,101001.50
2023-05-10T21:59:02.661Z,100992.25
2023-05-10T22:01:30.003Z,100989.78
2023-05-10T22:03:57.291Z,100988.50
2023-05-10T22:06:24.502Z,100989.34
2023-05-10T22:08:51.857Z,100997.94
2023-05-10T22:11:19.076Z,100991.44
2023-05-10T22:13:49.360Z,100989.44
2023-05-10T22:16:16.455Z,100983.94
2023-05-10T22:18:44.270Z,100986.78
2023-05-10T22:21:11.481Z,100991.06
2023-05-10T22:23:38.666Z,100988.41
2023-05-10T22:26:06.150Z,100991.53
2023-05-10T22:28:33.304Z,100991.16
2023-05-10T22:31:00.939Z,100984.03
2023-05-10T22:33:28.268Z,100994.47
2023-05-10T22:35:55.576Z,100996.13
2023-05-10T22:38:22.933Z,100997.13
2023-05-10T22:40:50.147Z,100991.63
2023-05-10T22:43:17.912Z,100993.28
2023-05-10T22:45:45.037Z,100999.41
2023-05-10T22:48:12.271Z,101001.44
2023-05-10T22:50:39.566Z,101000.13
2023-05-10T22:53:07.021Z,100992.16
2023-05-10T22:55:34.288Z,100989.34
2023-05-10T22:58:01.432Z,100988.50
2023-05-10T23:00:28.529Z,100993.00
2023-05-10T23:02:55.715Z,100996.84
2023-05-10T23:05:22.767Z,100997.19
2023-05-10T23:07:53.536Z,100996.75
2023-05-10T23:10:20.976Z,100998.75
2023-05-10T23:12:48.413Z,100995.28
2023-05-10T23:15:15.652Z,100992.97
2023-05-10T23:17:42.789Z,100997.84
2023-05-10T23:20:10.931Z,100998.00
2023-05-10T23:22:38.104Z,100988.38
2023-05-10T23:25:05.825Z,100995.03
2023-05-10T23:27:33.067Z,100998.22
2023-05-10T23:30:00.315Z,100998.41
2023-05-10T23:32:27.454Z,101000.22
2023-05-10T23:34:54.708Z,100994.09
2023-05-10T23:37:22.000Z,101000.78
2023-05-10T23:39:49.119Z,101002.81
2023-05-10T23:42:16.176Z,100997.66
2023-05-10T23:44:43.281Z,100995.19
2023-05-10T23:47:10.393Z,100991.25
2023-05-10T23:49:38.299Z,101001.41
2023-05-10T23:52:05.377Z,100990.31
2023-05-10T23:54:32.387Z,100994.81
2023-05-10T23:56:59.469Z,101001.09
2023-05-10T23:59:26.548Z,101009.69
